Terminal Aerodrome Forecast
Issued by NWS

Home | Current Version | Previous Version | Text Only | Print | Product List | Glossary On
Versions: 1 2 3 4 5 6 7 8 9 10 11 12 13 14 15 16 17 18 19
552
FTUS44 KLIX 221835 AAA
TAFHUM
TAF AMD
KHUM 221835Z 2219/2318 07006KT P6SM BKN020
     FM230300 VRB03KT P6SM SCT200
     FM231100 VRB03KT 4SM BR SCT200
     FM231400 10007KT P6SM BKN100=

USA.gov is the U.S. government's official web portal to all federal, state and local government web resources and services.